Portada
METAR-TAF:

METAR-TAF

Aeroports :

Tak, Tailàndia

latitud: 16-53N, longitud: 099-09E, altitud: 121 m

METAR: manca

Hora: 14:37 (07:37 UTC)

Pronòstic

L'informe es va fer fa 2 hores i 37 minuts, a les 05:00 UTC
Pronòstic vàlid del 19 a les 06 UTC al 20 a les 06 UTC
Vent 5 kt del Est
Visibilitat: 9000 m
Núvols disperses a una alçada de 2500 ft
Evolucionant progressivament
l' 19 a les 21 UTC al 19 a les 23 UTC
Visibilitat: 4000 m
boirina
Evolucionant progressivament
l' 20 a les 01 UTC al 20 a les 03 UTC
Visibilitat 10 km o més

TAF: VTPT 190500Z 1906/2006 08005KT 9000 SCT025 BECMG 1921/1923 4000 BR BECMG 2001/2003 9999 NSW

Observacions i pronòstics meteorològics de més de 4000 aeroports (METAR i TAF).

Les estacions disponibles són els punts grocs i vermells al mapa.

Posi el ratolí al punt desitjat per veure el nom de l'estació.

Feu clic per veure les observacions i els pronòstics meteorològics.

Per canviar el mapa: feu clic els botons verds amb una creu de color negre per apropar; al botó verd amb un guió per allunyar la imatge; o en les fletxes verdes per a mapes adjacents.


METAR-TAF: